This is the latest recevied weather packets stored in our database for station/object KD0ISH. If no packets are shown the sender has not sent any weather packets the latest 1 day(s).
| Time | Temp. | Humidity | Pressure | Rain* | Wind** | Luminosity | Snow |
|---|---|---|---|---|---|---|---|
| 1778086088 | 13.89° C | 57% | 1019.8 hPa | 0 mm | - | 48 W/m² | - |
| 1778081015 | 12.22° C | 68% | 1018.7 hPa | 0 mm | - | 42 W/m² | - |
| 1778080410 | 11.67° C | 71% | 1018.8 hPa | 0 mm | - | 143 W/m² | - |
| 1778079804 | 11.67° C | 70% | 1019 hPa | 0 mm | - | 192 W/m² | - |
| 1778079197 | 11.67° C | 72% | 1019 hPa | 0 mm | - | 182 W/m² | - |
| 1778078895 | 11.11° C | 72% | 1019.2 hPa | 0 mm | - | 181 W/m² | - |
| 1778076778 | 10.56° C | 78% | 1019 hPa | 0 mm | - | 154 W/m² | - |
| 1778071930 | 7.22° C | 98% | 1018.6 hPa | 0 mm | - | 51 W/m² | - |
| 1778071326 | 7.22° C | 99% | 1018.3 hPa | 0 mm | - | 39 W/m² | - |
| 1778070418 | 6.67° C | 99% | 1018.5 hPa | 0 mm | - | 36 W/m² | - |
| 1778069813 | 6.67° C | 99% | 1018.4 hPa | 0 mm | - | 15 W/m² | - |
| 1778068904 | 6.67° C | 99% | 1018.5 hPa | 0 mm | - | 6 W/m² | - |
| 1778067394 | 6.67° C | 99% | 1018.4 hPa | 0 mm | - | 2 W/m² | - |
| 1778066182 | 6.67° C | 99% | 1018.5 hPa | 0 mm | - | 0 W/m² | - |
| 1778063760 | 7.22° C | 99% | 1017.3 hPa | 0 mm | - | 0 W/m² | - |
| 1778063155 | 7.22° C | 99% | 1017.4 hPa | 0 mm | - | 0 W/m² | - |
| 1778062852 | 7.22° C | 99% | 1016.8 hPa | 0 mm | - | 0 W/m² | - |
| 1778061944 | 7.22° C | 99% | 1017 hPa | 0 mm | - | 0 W/m² | - |
| 1778061340 | 7.22° C | 99% | 1016.8 hPa | 0 mm | - | 0 W/m² | - |
| 1778061036 | 7.22° C | 99% | 1016.8 hPa | 0 mm | - | 0 W/m² | - |
| 1778060735 | 7.22° C | 99% | 1016.9 hPa | 0 mm | - | 0 W/m² | - |
| 1778060432 | 7.22° C | 99% | 1016.3 hPa | 0 mm | - | 0 W/m² | - |
| 1778059827 | 7.22° C | 99% | 1016.7 hPa | 0 mm | - | 0 W/m² | - |
| 1778059525 | 7.22° C | 99% | 1016.3 hPa | 0 mm | - | 0 W/m² | - |
| 1778058920 | 7.22° C | 99% | 1016.6 hPa | 0 mm | - | 0 W/m² | - |
* Rain latest hour (hover to see other rain measurements)
** Current wind speed in m/s (hover to see current wind gust speed)